Time;durP1;ratioP1;P1;durP2;ratioP2;P2;SDS_P1;SDS_P2;PMS_P1;PMS_P2;Temp;Humidity;BMP_temperature;BMP_pressure;BME280_temperature;BME280_humidity;BME280_pressure;Samples;Min_cycle;Max_cycle;Signal;HPM_P1;HPM_P2
2023/10/15 00:01:20;;;;;;;;;;;;;;;10.14;100.00;100637.81;5109125;28;20059;-83
2023/10/15 00:04:08;;;;;;;7.45;1.80;;;;;;;10.04;100.00;100643.53;5088022;28;19908;-81
2023/10/15 00:06:40;;;;;;;6.13;1.63;;;;;;;10.00;100.00;100645.44;5097356;28;20051;-81
2023/10/15 00:12:07;;;;;;;6.68;1.70;;;;;;;10.00;100.00;100642.81;5094775;28;20067;-80
2023/10/15 00:14:42;;;;;;;6.90;1.67;;;;;;;10.00;100.00;100631.34;5099908;28;20116;-81
2023/10/15 00:17:10;;;;;;;5.72;1.70;;;;;;;9.92;100.00;100631.66;5109409;28;20082;-80
2023/10/15 00:19:59;;;;;;;7.35;1.75;;;;;;;9.85;100.00;100646.06;5114289;28;20445;-82
2023/10/15 00:22:31;;;;;;;6.97;2.05;;;;;;;9.62;100.00;100611.72;5103810;28;20408;-82
2023/10/15 00:25:07;;;;;;;6.38;2.00;;;;;;;9.86;100.00;100642.50;5091309;28;20044;-81
2023/10/15 00:27:37;;;;;;;7.32;1.65;;;;;;;9.87;100.00;100646.88;5099273;28;20064;-81
2023/10/15 00:30:12;;;;;;;7.53;1.58;;;;;;;9.91;100.00;100645.84;5087193;28;20047;-82
2023/10/15 00:32:46;;;;;;;6.00;1.92;;;;;;;9.83;100.00;100647.91;5107943;28;20077;-82
2023/10/15 00:35:19;;;;;;;11.75;1.63;;;;;;;9.80;100.00;100633.00;5095181;28;20552;-83
2023/10/15 00:37:56;;;;;;;3.85;1.30;;;;;;;9.87;100.00;100643.38;5089231;28;20041;-83
2023/10/15 00:40:30;;;;;;;6.53;1.50;;;;;;;9.81;100.00;100640.03;5096229;28;20130;-81
2023/10/15 00:45:53;;;;;;;6.95;1.60;;;;;;;9.81;100.00;100649.75;5093563;28;20044;-81
2023/10/15 00:48:40;;;;;;;7.05;2.08;;;;;;;9.51;100.00;100612.16;5097440;28;20076;-80
2023/10/15 00:51:26;;;;;;;8.98;1.80;;;;;;;9.52;100.00;100634.16;5101723;28;20044;-80
2023/10/15 00:54:09;;;;;;;10.35;1.58;;;;;;;9.44;100.00;100640.59;5099241;28;20074;-80
2023/10/15 00:56:41;;;;;;;8.65;2.20;;;;;;;9.35;100.00;100646.25;5107883;28;20127;-82
2023/10/15 00:59:18;;;;;;;5.20;1.85;;;;;;;9.22;100.00;100642.34;5097708;28;20078;-80
2023/10/15 01:02:03;;;;;;;7.47;2.08;;;;;;;9.19;100.00;100638.94;5088272;28;20040;-82
2023/10/15 01:04:35;;;;;;;6.35;1.50;;;;;;;9.11;100.00;100633.97;5093859;28;20040;-81
2023/10/15 01:07:32;;;;;;;7.18;1.58;;;;;;;9.02;100.00;100623.72;5081324;28;20053;-83
2023/10/15 01:12:53;;;;;;;7.45;1.70;;;;;;;9.06;100.00;100627.97;5100345;28;20143;-82
2023/10/15 01:15:27;;;;;;;4.70;1.45;;;;;;;9.18;100.00;100635.44;5083868;28;20058;-83
2023/10/15 01:18:07;;;;;;;7.95;1.83;;;;;;;9.22;100.00;100633.56;5118694;28;20071;-82
2023/10/15 01:20:42;;;;;;;5.90;1.90;;;;;;;9.30;100.00;100631.47;5103062;28;20052;-83
2023/10/15 01:26:39;;;;;;;8.25;2.03;;;;;;;9.39;100.00;100620.56;5092671;28;20455;-82
2023/10/15 01:29:15;;;;;;;5.10;1.70;;;;;;;9.23;100.00;100625.56;5101679;28;20063;-82
2023/10/15 01:31:53;;;;;;;8.65;1.70;;;;;;;9.00;100.00;100617.63;5096397;28;20048;-83
2023/10/15 01:34:26;;;;;;;6.00;1.70;;;;;;;8.93;100.00;100624.94;5098692;28;20059;-82
2023/10/15 01:36:56;;;;;;;6.28;2.15;;;;;;;8.87;100.00;100619.00;5094889;28;20044;-82
2023/10/15 01:39:37;;;;;;;7.63;1.55;;;;;;;8.88;100.00;100610.16;5104216;28;20044;-82
2023/10/15 01:42:34;;;;;;;4.50;1.67;;;;;;;9.07;100.00;100627.94;5096641;28;20040;-82
2023/10/15 01:48:13;;;;;;;7.03;1.95;;;;;;;9.03;100.00;100605.19;5091324;28;20032;-83
2023/10/15 01:51:04;;;;;;;4.68;1.85;;;;;;;9.17;100.00;100615.22;5090454;28;20040;-83
2023/10/15 01:53:45;;;;;;;5.53;1.65;;;;;;;9.11;100.00;100613.69;5096284;28;20056;-83
2023/10/15 01:56:20;;;;;;;4.53;1.60;;;;;;;9.08;100.00;100610.31;5083881;28;20067;-82
2023/10/15 01:59:08;;;;;;;9.00;1.90;;;;;;;9.04;100.00;100622.75;5091234;28;20052;-82
2023/10/15 02:01:40;;;;;;;4.20;1.90;;;;;;;8.76;100.00;100612.34;5090325;28;20036;-83
2023/10/15 02:04:18;;;;;;;8.05;1.98;;;;;;;8.46;100.00;100600.25;5096973;28;20037;-81
2023/10/15 02:06:55;;;;;;;9.82;1.90;;;;;;;8.36;100.00;100618.16;5089944;28;20048;-83
2023/10/15 02:09:43;;;;;;;9.23;1.90;;;;;;;8.21;100.00;100605.44;5093412;28;20048;-83
2023/10/15 02:12:27;;;;;;;7.72;2.20;;;;;;;8.29;100.00;100634.22;5103890;28;20079;-83
2023/10/15 02:15:14;;;;;;;8.18;2.10;;;;;;;8.14;100.00;100618.91;5100507;28;20044;-82
2023/10/15 02:17:59;;;;;;;8.88;2.35;;;;;;;8.14;100.00;100626.81;5093097;28;20132;-81
2023/10/15 02:20:42;;;;;;;;;;;;;;;8.15;100.00;100642.59;5101660;28;20135;-81
2023/10/15 02:23:15;;;;;;;4.97;1.80;;;;;;;8.08;100.00;100634.00;5091084;28;19963;-80
2023/10/15 02:25:56;;;;;;;8.32;1.77;;;;;;;8.16;100.00;100639.06;5099240;28;20108;-82
2023/10/15 02:28:36;;;;;;;7.40;1.73;;;;;;;8.16;100.00;100646.09;5105236;28;20625;-82
2023/10/15 02:31:29;;;;;;;5.10;1.80;;;;;;;8.19;100.00;100633.66;5086885;28;20057;-81
2023/10/15 02:34:01;;;;;;;5.50;1.77;;;;;;;8.30;100.00;100638.59;5095346;28;20098;-80
2023/10/15 02:36:32;;;;;;;8.88;2.08;;;;;;;8.22;100.00;100617.72;5094832;28;20135;-81
2023/10/15 02:39:02;;;;;;;5.43;1.67;;;;;;;8.21;100.00;100620.41;5089967;28;20063;-81
2023/10/15 02:41:40;;;;;;;6.28;1.98;;;;;;;8.38;100.00;100647.13;5095652;28;20052;-80
2023/10/15 02:44:17;;;;;;;8.80;2.80;;;;;;;8.20;100.00;100637.16;5106099;28;20104;-80
2023/10/15 02:47:06;;;;;;;5.63;1.90;;;;;;;8.18;100.00;100646.91;5108478;28;20097;-80
2023/10/15 02:49:50;;;;;;;7.50;1.98;;;;;;;8.06;100.00;100637.59;5097254;28;20040;-82
2023/10/15 03:03:23;;;;;;;7.43;2.08;;;;;;;7.97;100.00;100601.88;6251008;22;1513671;-83
2023/10/15 03:05:57;;;;;;;7.90;2.73;;;;;;;8.01;100.00;100632.50;6267314;22;20016;-82
2023/10/15 03:08:39;;;;;;;8.57;2.33;;;;;;;7.89;100.00;100629.38;6268249;22;20075;-82
2023/10/15 03:11:22;;;;;;;5.03;1.90;;;;;;;7.78;100.00;100629.72;6272096;22;20343;-82
2023/10/15 03:13:50;;;;;;;9.32;2.35;;;;;;;7.62;100.00;100604.78;6271884;22;20098;-82
2023/10/15 03:16:23;;;;;;;6.17;1.93;;;;;;;7.73;100.00;100616.69;6271539;22;20083;-82
2023/10/15 03:19:09;;;;;;;7.70;2.35;;;;;;;7.85;100.00;100627.78;6271830;22;20026;-82
2023/10/15 03:21:42;;;;;;;9.52;2.08;;;;;;;7.85;100.00;100619.88;6272116;22;20180;-82
2023/10/15 03:24:18;;;;;;;6.38;1.88;;;;;;;7.78;100.00;100606.00;6270889;22;20240;-83
2023/10/15 03:26:49;;;;;;;7.88;2.33;;;;;;;7.94;100.00;100619.56;6270093;22;20023;-83
2023/10/15 03:32:09;;;;;;;7.93;2.22;;;;;;;7.80;100.00;100625.28;6270201;22;20040;-83
2023/10/15 03:34:59;;;;;;;6.97;2.15;;;;;;;7.69;100.00;100627.41;6275556;22;20022;-81
2023/10/15 03:40:30;;;;;;;5.20;2.13;;;;;;;7.50;100.00;100610.44;6282949;22;20015;-82
2023/10/15 03:43:06;;;;;;;6.63;2.15;;;;;;;7.59;100.00;100618.91;6278183;22;20030;-81
2023/10/15 03:45:50;;;;;;;9.18;2.60;;;;;;;7.43;100.00;100588.66;6299523;22;20046;-82
2023/10/15 03:54:13;;;;;;;8.52;2.30;;;;;;;7.76;100.00;100610.47;4793297;27;9970152;-82
2023/10/15 03:56:46;;;;;;;6.45;2.05;;;;;;;7.83;100.00;100630.47;5131264;28;20092;-81
2023/10/15 03:59:17;;;;;;;6.95;2.42;;;;;;;7.74;100.00;100636.00;5133400;28;20043;-80
2023/10/15 04:01:49;;;;;;;9.23;2.28;;;;;;;7.67;100.00;100631.84;5121618;28;20106;-80
2023/10/15 04:04:23;;;;;;;10.27;2.60;;;;;;;7.77;100.00;100637.69;5120304;27;20397;-82
2023/10/15 04:09:42;;;;;;;5.63;2.20;;;;;;;7.99;100.00;100642.25;5122923;28;20028;-83
2023/10/15 04:12:18;;;;;;;10.85;2.85;;;;;;;8.04;100.00;100640.28;5142105;27;20035;-83
2023/10/15 04:14:47;;;;;;;7.95;2.13;;;;;;;8.08;100.00;100634.00;5120316;27;20074;-83
2023/10/15 04:17:15;;;;;;;9.13;2.90;;;;;;;8.10;100.00;100626.91;5129725;28;20044;-82
2023/10/15 04:19:58;;;;;;;7.45;2.45;;;;;;;7.98;100.00;100623.81;5116716;28;20054;-81
2023/10/15 04:22:28;;;;;;;4.70;2.50;;;;;;;7.92;100.00;100631.91;5127706;28;20056;-81
2023/10/15 04:27:48;;;;;;;8.40;2.63;;;;;;;7.66;100.00;100633.63;5133765;28;19952;-80
2023/10/15 04:30:19;;;;;;;7.75;2.20;;;;;;;7.69;100.00;100628.25;5099166;28;20063;-81
2023/10/15 04:32:50;;;;;;;10.20;2.90;;;;;;;7.78;100.00;100636.78;5124363;28;20040;-83
2023/10/15 04:35:25;;;;;;;8.00;2.60;;;;;;;7.78;100.00;100621.81;5113303;28;20097;-82
2023/10/15 04:38:18;;;;;;;6.85;2.45;;;;;;;7.85;100.00;100633.06;5128724;28;20055;-84
2023/10/15 04:43:45;;;;;;;6.18;2.40;;;;;;;7.76;100.00;100623.66;5109428;28;20135;-81
2023/10/15 04:46:25;;;;;;;6.37;2.30;;;;;;;7.96;100.00;100637.06;5114171;28;20138;-80
2023/10/15 04:48:55;;;;;;;8.02;2.72;;;;;;;7.94;100.00;100622.19;5112549;28;20051;-83
2023/10/15 04:51:38;;;;;;;5.57;2.17;;;;;;;8.07;100.00;100629.66;5135354;28;20557;-82
2023/10/15 04:54:07;;;;;;;7.57;2.50;;;;;;;8.02;100.00;100641.28;5101953;28;20044;-81
2023/10/15 04:56:46;;;;;;;6.85;2.15;;;;;;;7.95;100.00;100639.75;5087180;28;20048;-82
2023/10/15 04:59:16;;;;;;;7.70;2.83;;;;;;;7.86;100.00;100611.03;5088707;28;20063;-81
2023/10/15 05:01:48;;;;;;;7.85;2.58;;;;;;;7.95;100.00;100635.34;5092674;28;20472;-83
2023/10/15 05:04:22;;;;;;;6.10;2.38;;;;;;;7.79;100.00;100615.66;5106675;28;20116;-79
2023/10/15 05:06:51;;;;;;;6.55;2.28;;;;;;;7.88;100.00;100620.59;5082624;28;20036;-80
2023/10/15 05:09:24;;;;;;;4.13;2.28;;;;;;;8.00;100.00;100638.69;5086044;28;20040;-84
2023/10/15 05:14:49;;;;;;;8.90;2.53;;;;;;;7.95;100.00;100637.97;5090897;28;20040;-81
2023/10/15 05:20:11;;;;;;;5.00;2.35;;;;;;;7.89;100.00;100616.19;5119134;28;20044;-81
2023/10/15 05:22:41;;;;;;;5.95;2.20;;;;;;;7.94;100.00;100633.59;5100539;28;20047;-81
2023/10/15 05:28:03;;;;;;;8.15;2.47;;;;;;;7.88;100.00;100633.78;5096664;28;20044;-81
2023/10/15 05:30:37;;;;;;;10.73;2.70;;;;;;;7.81;100.00;100626.13;5090991;28;20044;-80
2023/10/15 05:33:11;;;;;;;9.75;2.70;;;;;;;7.76;100.00;100623.66;5078578;28;20044;-81
2023/10/15 05:35:52;;;;;;;7.07;2.50;;;;;;;7.79;100.00;100655.19;5090374;28;20449;-81
2023/10/15 05:44:44;;;;;;;6.72;2.80;;;;;;;7.73;100.00;100661.50;5133772;27;20105;-83
2023/10/15 05:47:18;;;;;;;9.30;2.70;;;;;;;7.68;100.00;100650.25;5149619;27;20103;-82
2023/10/15 05:49:49;;;;;;;9.57;2.95;;;;;;;7.65;100.00;100658.25;5120387;28;20052;-79
2023/10/15 05:52:19;;;;;;;7.05;2.88;;;;;;;7.64;100.00;100659.16;5097250;28;20048;-83
2023/10/15 05:55:05;;;;;;;9.38;2.95;;;;;;;7.56;100.00;100674.34;5092574;28;20049;-81
2023/10/15 05:57:36;;;;;;;7.47;2.72;;;;;;;7.59;100.00;100668.97;5112930;28;20048;-81
2023/10/15 06:02:55;;;;;;;10.45;3.97;;;;;;;7.70;100.00;100660.75;5092158;28;20066;-81
2023/10/15 06:05:30;;;;;;;9.60;3.35;;;;;;;7.60;100.00;100646.13;5089153;28;20154;-82
2023/10/15 06:07:59;;;;;;;6.47;2.80;;;;;;;7.67;100.00;100666.13;5111645;28;20066;-83
2023/10/15 06:13:18;;;;;;;6.38;3.10;;;;;;;7.66;100.00;100649.44;5103721;28;20060;-82
2023/10/15 06:15:48;;;;;;;7.80;3.25;;;;;;;7.75;100.00;100662.31;5094321;28;20045;-81
2023/10/15 06:18:19;;;;;;;12.10;3.30;;;;;;;7.84;100.00;100671.72;5102550;28;20055;-82
2023/10/15 06:20:53;;;;;;;8.75;3.00;;;;;;;7.82;100.00;100667.41;5099115;28;20120;-82
2023/10/15 06:23:24;;;;;;;8.07;2.60;;;;;;;7.88;100.00;100680.38;5100529;28;20044;-82
2023/10/15 06:25:54;;;;;;;6.25;2.78;;;;;;;7.86;100.00;100685.75;5093880;28;20056;-83
2023/10/15 06:28:25;;;;;;;7.88;2.92;;;;;;;7.80;100.00;100678.00;5107947;28;20032;-80
2023/10/15 06:30:55;;;;;;;10.90;2.85;;;;;;;7.84;100.00;100684.91;5095257;28;20042;-83
2023/10/15 06:33:24;;;;;;;8.07;3.05;;;;;;;7.90;100.00;100683.84;5082923;28;20078;-80
2023/10/15 06:35:54;;;;;;;12.02;3.25;;;;;;;7.94;100.00;100686.34;5114442;28;20142;-84
2023/10/15 06:38:26;;;;;;;8.05;2.70;;;;;;;7.92;100.00;100693.44;5106984;28;20024;-83
2023/10/15 06:40:54;;;;;;;8.82;3.08;;;;;;;7.82;100.00;100675.31;5106969;28;20042;-81
2023/10/15 06:43:25;;;;;;;8.30;2.95;;;;;;;7.96;100.00;100686.28;5107855;28;20036;-82
2023/10/15 06:46:07;;;;;;;7.05;2.90;;;;;;;7.98;100.00;100677.44;5089723;28;20058;-82
2023/10/15 06:48:38;;;;;;;8.38;3.53;;;;;;;8.14;100.00;100695.41;5101684;28;20041;-81
2023/10/15 06:51:13;;;;;;;7.70;3.42;;;;;;;8.00;100.00;100672.97;5095956;28;20044;-82
2023/10/15 06:53:42;;;;;;;8.10;3.55;;;;;;;8.07;100.00;100685.03;5080963;28;20056;-82
2023/10/15 06:56:17;;;;;;;5.80;3.10;;;;;;;8.12;100.00;100684.03;5089782;28;20064;-82
2023/10/15 06:58:47;;;;;;;10.93;3.72;;;;;;;7.88;100.00;100644.34;5087922;28;20103;-82
2023/10/15 07:01:17;;;;;;;7.75;3.20;;;;;;;8.13;100.00;100678.72;5095731;28;20070;-82
2023/10/15 07:03:45;;;;;;;7.90;3.33;;;;;;;8.33;100.00;100693.94;5071819;28;20049;-82
2023/10/15 07:06:26;;;;;;;7.93;3.25;;;;;;;8.45;100.00;100704.06;5077546;28;20044;-82
2023/10/15 07:08:54;;;;;;;13.70;3.40;;;;;;;8.51;100.00;100684.50;5105129;28;20146;-82
2023/10/15 07:11:23;;;;;;;10.50;3.53;;;;;;;8.76;100.00;100690.69;5083322;28;20037;-83
2023/10/15 07:13:53;;;;;;;11.23;3.63;;;;;;;8.75;100.00;100655.50;5084455;28;20112;-82
2023/10/15 07:16:35;;;;;;;9.30;3.20;;;;;;;9.23;100.00;100704.84;5085362;28;20040;-81
2023/10/15 07:19:20;;;;;;;8.85;3.42;;;;;;;9.57;100.00;100696.53;5081410;28;20091;-81
2023/10/15 07:21:58;;;;;;;8.38;3.22;;;;;;;9.40;100.00;100685.72;5091789;28;20071;-81
2023/10/15 07:24:31;;;;;;;6.95;3.03;;;;;;;9.43;100.00;100697.06;5096317;28;20048;-81
2023/10/15 07:27:04;;;;;;;9.93;3.40;;;;;;;9.35;100.00;100695.59;5093732;28;20132;-79
2023/10/15 07:29:33;;;;;;;10.80;3.90;;;;;;;8.81;100.00;100690.53;5070652;28;20043;-81
2023/10/15 07:32:08;;;;;;;9.68;3.78;;;;;;;8.51;100.00;100695.06;5084836;28;20044;-83
2023/10/15 07:34:44;;;;;;;9.70;4.00;;;;;;;8.60;100.00;100693.00;5085447;28;20054;-81
2023/10/15 07:37:21;;;;;;;9.75;3.33;;;;;;;8.65;100.00;100695.50;5092042;28;20049;-81
2023/10/15 07:39:52;;;;;;;9.55;3.33;;;;;;;8.65;100.00;100663.81;5092292;28;20053;-82
2023/10/15 07:42:23;;;;;;;10.50;3.50;;;;;;;9.11;100.00;100678.88;5082785;28;20055;-83
2023/10/15 07:44:52;;;;;;;9.05;3.40;;;;;;;9.41;100.00;100672.47;5090313;28;20040;-80
2023/10/15 07:47:25;;;;;;;9.20;3.10;;;;;;;9.82;100.00;100688.50;5084606;28;20048;-82
2023/10/15 07:49:54;;;;;;;9.00;3.83;;;;;;;10.03;100.00;100698.25;5085294;28;20123;-82
2023/10/15 07:52:24;;;;;;;8.35;3.22;;;;;;;10.16;100.00;100703.91;5077158;28;20048;-82
2023/10/15 07:54:54;;;;;;;6.87;3.37;;;;;;;9.92;100.00;100689.84;5088734;28;20046;-82
2023/10/15 07:57:22;;;;;;;7.43;2.97;;;;;;;9.94;100.00;100689.78;5098123;28;20483;-81
2023/10/15 08:00:02;;;;;;;7.22;2.95;;;;;;;10.18;100.00;100687.06;5078269;28;20050;-83
2023/10/15 08:02:52;;;;;;;8.40;3.08;;;;;;;10.66;100.00;100695.69;5043750;28;20069;-81
2023/10/15 08:05:22;;;;;;;6.75;2.65;;;;;;;10.69;100.00;100659.34;5044758;28;20058;-82
2023/10/15 08:07:56;;;;;;;7.38;2.50;;;;;;;10.84;100.00;100677.22;5038010;28;20026;-81
2023/10/15 08:10:32;;;;;;;6.78;2.65;;;;;;;11.06;100.00;100681.56;5038352;28;20025;-80
2023/10/15 08:13:08;;;;;;;9.73;2.58;;;;;;;11.01;100.00;100691.53;5045674;28;20026;-77
2023/10/15 08:15:39;;;;;;;6.32;2.15;;;;;;;10.97;100.00;100697.88;5042633;28;20063;-81
2023/10/15 08:21:25;;;;;;;6.25;1.83;;;;;;;11.15;100.00;100715.63;5148678;27;24465;-83
2023/10/15 08:23:57;;;;;;;4.47;1.40;;;;;;;10.89;100.00;100719.38;5109570;28;20103;-82
2023/10/15 08:26:26;;;;;;;5.93;1.90;;;;;;;10.63;100.00;100725.81;5085659;28;20048;-82
2023/10/15 08:31:41;;;;;;;6.90;1.10;;;;;;;10.31;100.00;100731.56;5095464;28;20070;-83
2023/10/15 08:34:12;;;;;;;4.13;1.65;;;;;;;10.33;100.00;100735.88;5094281;28;20048;-82
2023/10/15 08:36:42;;;;;;;;;;;;;;;10.45;100.00;100739.81;5114106;28;20070;-82
2023/10/15 08:39:18;;;;;;;3.85;1.38;;;;;;;10.57;100.00;100736.66;5101942;28;20339;-82
2023/10/15 08:41:50;;;;;;;5.50;1.50;;;;;;;10.70;100.00;100735.22;5102059;28;20059;-82
2023/10/15 08:44:19;;;;;;;3.85;1.48;;;;;;;10.89;100.00;100746.75;5096900;28;20040;-81
2023/10/15 08:46:48;;;;;;;4.40;1.42;;;;;;;10.97;96.60;100740.28;5097831;28;20507;-82
2023/10/15 08:49:36;;;;;;;5.15;1.30;;;;;;;10.71;92.99;100738.72;5090911;28;20044;-82
2023/10/15 08:52:09;;;;;;;6.05;0.90;;;;;;;10.54;94.55;100737.66;5102679;28;20072;-81
2023/10/15 08:54:40;;;;;;;5.45;1.00;;;;;;;10.65;94.22;100755.75;5098857;28;20051;-82
2023/10/15 08:57:09;;;;;;;11.82;1.40;;;;;;;10.66;92.00;100752.16;5105064;28;20070;-82
2023/10/15 08:59:39;;;;;;;6.20;0.90;;;;;;;10.76;91.60;100753.50;5118747;28;20040;-82
2023/10/15 09:02:15;;;;;;;2.58;1.05;;;;;;;10.79;92.26;100745.44;5097353;28;20090;-83
2023/10/15 09:04:45;;;;;;;4.50;1.10;;;;;;;10.95;91.57;100755.38;5095378;28;20051;-82
2023/10/15 09:07:33;;;;;;;5.43;1.10;;;;;;;11.18;88.19;100763.19;5092755;28;20064;-83
2023/10/15 09:10:08;;;;;;;3.35;0.95;;;;;;;11.34;84.38;100763.38;5100064;28;20484;-83
2023/10/15 09:12:39;;;;;;;1.80;0.70;;;;;;;11.47;83.47;100757.47;5112259;28;20048;-83
2023/10/15 09:15:15;;;;;;;3.42;1.10;;;;;;;11.66;79.96;100775.19;5098826;28;20066;-83
2023/10/15 09:17:56;;;;;;;3.40;1.00;;;;;;;11.49;77.99;100770.66;5108103;28;20370;-83
2023/10/15 09:20:32;;;;;;;3.50;1.00;;;;;;;11.33;77.48;100753.72;5103642;28;20047;-82
2023/10/15 09:23:21;;;;;;;2.80;0.98;;;;;;;11.50;75.62;100767.91;5114207;28;20039;-83
2023/10/15 09:25:55;;;;;;;3.72;1.13;;;;;;;11.27;77.06;100768.09;5097319;28;20052;-83
2023/10/15 09:28:30;;;;;;;3.67;1.05;;;;;;;10.83;78.15;100733.78;5100804;28;20063;-83
2023/10/15 09:31:09;;;;;;;2.47;1.10;;;;;;;10.89;80.89;100753.84;5091008;28;20051;-83
2023/10/15 09:33:43;;;;;;;3.20;0.90;;;;;;;11.19;79.03;100759.59;5074169;28;20033;-83
2023/10/15 09:45:23;;;;;;;2.95;1.00;;;;;;;11.46;74.21;100755.75;5088855;28;20066;-82
2023/10/15 09:48:09;;;;;;;3.08;1.20;;;;;;;11.29;78.04;100763.59;5097541;28;20051;-82
2023/10/15 09:53:30;;;;;;;4.68;1.38;;;;;;;11.55;75.06;100771.25;5074163;28;20534;-83
2023/10/15 10:01:36;;;;;;;2.47;1.10;;;;;;;11.73;71.58;100771.34;5094506;28;20116;-82
2023/10/15 10:04:43;;;;;;;2.00;0.90;;;;;;;11.87;69.84;100776.91;5093871;28;20063;-82
2023/10/15 10:07:47;;;;;;;2.58;1.10;;;;;;;11.95;70.62;100777.44;5098715;28;20036;-82
2023/10/15 10:10:51;;;;;;;2.63;1.00;;;;;;;12.16;67.46;100770.22;5083505;28;20041;-84
2023/10/15 10:13:45;;;;;;;3.15;0.90;;;;;;;12.21;68.09;100782.34;5085913;28;20627;-84
2023/10/15 10:16:30;;;;;;;2.85;0.88;;;;;;;12.58;69.10;100783.25;5090820;28;20052;-82
2023/10/15 10:19:01;;;;;;;1.50;1.15;;;;;;;12.93;64.86;100773.50;5094010;28;20055;-83
2023/10/15 10:21:34;;;;;;;;;;;;;;;13.09;62.35;100786.88;5084840;28;20040;-83
2023/10/15 10:24:47;;;;;;;4.47;0.80;;;;;;;12.29;61.05;100748.31;4927207;27;5093052;-79
2023/10/15 10:27:18;;;;;;;2.72;0.82;;;;;;;12.13;62.98;100783.63;5071932;28;20047;-79
2023/10/15 10:29:51;;;;;;;2.30;0.90;;;;;;;11.93;63.77;100787.25;5078215;28;20060;-78
2023/10/15 10:32:21;;;;;;;2.47;0.80;;;;;;;11.90;65.54;100784.72;5066427;28;20036;-76
2023/10/15 10:35:14;;;;;;;2.93;0.90;;;;;;;11.97;67.65;100793.25;5093633;28;20072;-80
2023/10/15 10:38:05;;;;;;;2.03;0.77;;;;;;;12.07;65.30;100797.22;5077528;28;20040;-79
2023/10/15 10:40:50;;;;;;;2.80;0.90;;;;;;;12.29;65.21;100793.47;5077107;28;20040;-82
2023/10/15 10:43:24;;;;;;;4.63;1.08;;;;;;;12.19;61.58;100776.25;5078680;28;20118;-78
2023/10/15 10:45:56;;;;;;;2.10;0.80;;;;;;;12.32;60.39;100796.91;5077475;28;20116;-79
2023/10/15 10:48:27;;;;;;;4.30;1.02;;;;;;;12.11;59.21;100786.41;5086896;28;20036;-78
2023/10/15 10:51:18;;;;;;;3.78;0.90;;;;;;;11.93;60.66;100768.66;5065250;28;20047;-79
2023/10/15 10:54:41;;;;;;;2.08;0.80;;;;;;;12.18;60.94;100789.59;5088532;28;20037;-80
2023/10/15 10:57:10;;;;;;;1.73;1.02;;;;;;;12.46;60.52;100783.81;5080934;28;20416;-82
2023/10/15 10:59:41;;;;;;;4.50;1.10;;;;;;;12.50;59.43;100761.50;5089816;28;20215;-78
2023/10/15 11:02:14;;;;;;;4.25;1.15;;;;;;;12.75;59.47;100785.06;5079098;28;20043;-79
2023/10/15 11:04:43;;;;;;;4.00;1.17;;;;;;;12.71;58.84;100787.03;5062264;28;20104;-80
2023/10/15 11:07:13;;;;;;;3.92;1.27;;;;;;;12.27;59.97;100779.44;5074301;28;20052;-80
2023/10/15 11:09:42;;;;;;;;;;;;;;;12.28;62.44;100785.56;5071323;28;20084;-80
2023/10/15 11:12:14;;;;;;;1.88;0.80;;;;;;;12.14;62.54;100758.81;5083212;28;20253;-81
2023/10/15 11:14:44;;;;;;;3.67;1.10;;;;;;;12.08;61.00;100791.84;5074918;28;20115;-79
2023/10/15 11:17:12;;;;;;;3.15;0.90;;;;;;;11.86;62.61;100788.44;5061048;28;20040;-79
2023/10/15 11:19:41;;;;;;;2.30;0.88;;;;;;;11.88;64.28;100794.53;5062752;28;20138;-78
2023/10/15 11:22:10;;;;;;;2.63;0.88;;;;;;;11.79;65.15;100798.50;5064477;28;20048;-78
2023/10/15 11:24:38;;;;;;;3.22;0.95;;;;;;;11.65;66.74;100757.56;5060314;28;20056;-77
2023/10/15 11:27:12;;;;;;;2.88;0.93;;;;;;;11.85;65.11;100784.06;5055176;28;20048;-79
2023/10/15 11:29:43;;;;;;;1.70;0.88;;;;;;;11.95;62.82;100782.72;5083073;28;20116;-78
2023/10/15 11:32:19;;;;;;;2.35;1.00;;;;;;;12.22;60.29;100784.09;5089623;28;20055;-78
2023/10/15 11:34:47;;;;;;;1.90;0.65;;;;;;;12.15;60.82;100790.59;5049338;28;20091;-79
2023/10/15 11:37:19;;;;;;;2.83;0.80;;;;;;;12.24;60.24;100784.88;5062321;28;20132;-78
2023/10/15 11:39:48;;;;;;;2.08;0.70;;;;;;;12.20;58.67;100771.81;5067529;28;20063;-80
2023/10/15 11:42:19;;;;;;;2.80;1.00;;;;;;;12.28;58.82;100791.75;5056192;28;20068;-79
2023/10/15 11:44:55;;;;;;;3.97;0.98;;;;;;;12.14;59.54;100802.16;5056204;28;20512;-78
2023/10/15 11:47:27;;;;;;;3.95;1.63;;;;;;;11.92;60.36;100799.66;5068209;28;20044;-77
2023/10/15 11:49:55;;;;;;;;;;;;;;;11.75;62.76;100819.88;5063755;28;20043;-78
2023/10/15 11:52:28;;;;;;;1.98;0.95;;;;;;;11.52;64.15;100808.50;5060886;28;19942;-78
2023/10/15 11:54:57;;;;;;;3.13;1.13;;;;;;;11.18;76.41;100809.09;5047287;28;20497;-82
2023/10/15 11:57:27;;;;;;;3.20;0.95;;;;;;;10.94;89.16;100836.66;5059003;28;20044;-80
2023/10/15 11:59:57;;;;;;;2.20;1.20;;;;;;;10.81;95.47;100824.84;5047518;28;20044;-79
2023/10/15 12:02:27;;;;;;;5.60;1.60;;;;;;;10.91;98.49;100836.78;5050936;28;20076;-81
2023/10/15 12:05:09;;;;;;;3.45;1.10;;;;;;;10.72;96.15;100810.16;5055599;28;20139;-78
2023/10/15 12:07:38;;;;;;;1.33;0.85;;;;;;;10.58;96.35;100815.16;5054444;28;20051;-78
2023/10/15 12:10:14;;;;;;;2.38;1.23;;;;;;;10.35;98.85;100831.97;5047643;28;20051;-81
2023/10/15 12:12:43;;;;;;;1.10;1.00;;;;;;;10.09;100.00;100822.34;5051957;28;20053;-80
2023/10/15 12:15:12;;;;;;;2.10;1.13;;;;;;;10.09;100.00;100809.13;5054218;28;20045;-79
2023/10/15 12:17:40;;;;;;;2.10;0.82;;;;;;;10.17;100.00;100817.63;5047239;28;20558;-80
2023/10/15 12:20:12;;;;;;;1.17;0.65;;;;;;;10.30;100.00;100833.94;5046327;28;20441;-82
2023/10/15 12:22:48;;;;;;;2.90;0.90;;;;;;;10.36;100.00;100833.72;5054397;28;20125;-80
2023/10/15 12:25:18;;;;;;;2.83;1.55;;;;;;;10.43;100.00;100843.13;5066404;28;20048;-80
2023/10/15 12:27:46;;;;;;;1.35;0.80;;;;;;;10.48;100.00;100838.50;5051970;28;20079;-78
2023/10/15 12:30:23;;;;;;;1.33;0.77;;;;;;;10.54;100.00;100850.66;5054340;28;20048;-81
2023/10/15 12:32:53;;;;;;;0.93;0.60;;;;;;;10.54;100.00;100851.53;5071094;28;20062;-80
2023/10/15 12:35:22;;;;;;;;;;;;;;;10.57;100.00;100847.88;5080199;28;20048;-80
2023/10/15 12:37:58;;;;;;;0.93;0.60;;;;;;;10.52;100.00;100850.72;5078283;28;19947;-80
2023/10/15 12:40:31;;;;;;;1.35;0.70;;;;;;;10.45;97.21;100848.34;5074619;28;20044;-77
2023/10/15 12:42:59;;;;;;;2.10;0.80;;;;;;;10.42;98.18;100854.63;5060330;28;20052;-80
2023/10/15 12:45:29;;;;;;;1.73;0.70;;;;;;;10.44;98.41;100844.84;5074775;28;20047;-80
2023/10/15 12:47:59;;;;;;;1.40;0.70;;;;;;;10.58;96.77;100846.09;5059252;28;20041;-80
2023/10/15 12:50:30;;;;;;;2.50;0.70;;;;;;;10.61;97.12;100832.72;5059933;28;20134;-79
2023/10/15 12:52:59;;;;;;;2.40;1.13;;;;;;;10.70;93.77;100829.72;5044758;28;20228;-79
2023/10/15 12:55:27;;;;;;;2.45;0.90;;;;;;;10.66;92.91;100812.22;5066178;28;20150;-81
2023/10/15 12:57:58;;;;;;;1.80;1.10;;;;;;;10.70;93.31;100790.00;5053142;28;20608;-82
2023/10/15 13:00:27;;;;;;;4.85;1.40;;;;;;;11.06;92.59;100824.66;5048034;28;20041;-81
2023/10/15 13:03:04;;;;;;;3.03;1.08;;;;;;;11.23;93.30;100833.63;5054955;28;20072;-81
2023/10/15 13:05:33;;;;;;;2.05;1.20;;;;;;;11.40;91.75;100840.88;5053691;28;20074;-79
2023/10/15 13:08:01;;;;;;;2.20;1.00;;;;;;;11.59;89.58;100839.16;5074826;28;20064;-80
2023/10/15 13:10:32;;;;;;;3.00;1.50;;;;;;;11.74;88.79;100823.47;5071876;28;20061;-88
2023/10/15 13:13:02;;;;;;;2.42;1.00;;;;;;;11.77;82.24;100834.84;5071598;28;20041;-83
2023/10/15 13:15:31;;;;;;;2.10;1.00;;;;;;;11.81;84.26;100835.53;5061788;28;20126;-86
2023/10/15 13:18:03;;;;;;;2.25;1.05;;;;;;;11.76;81.21;100837.56;5054976;28;20517;-87
2023/10/15 13:20:31;;;;;;;2.20;1.17;;;;;;;11.69;82.98;100820.16;5056199;28;20044;-87
2023/10/15 13:23:01;;;;;;;2.17;1.10;;;;;;;11.60;82.41;100811.69;5040886;28;20045;-86
2023/10/15 13:25:29;;;;;;;1.13;1.00;;;;;;;11.38;75.71;100797.66;5050016;28;20087;-85
2023/10/15 13:28:03;;;;;;;1.08;0.75;;;;;;;11.51;74.33;100813.88;5045128;28;20560;-87
2023/10/15 13:30:32;;;;;;;2.65;1.00;;;;;;;11.55;75.76;100810.16;5047392;28;20048;-82